sensor_id;sensor_type;location;lat;lon;timestamp;temperature;humidity
2993;DHT22;1506;48.932;9.478;2023-01-01T00:00:42;15.20;1.00
2993;DHT22;1506;48.932;9.478;2023-01-01T00:03:09;15.20;1.00
2993;DHT22;1506;48.932;9.478;2023-01-01T00:10:34;15.10;1.00
2993;DHT22;1506;48.932;9.478;2023-01-01T00:13:01;15.10;1.00
2993;DHT22;1506;48.932;9.478;2023-01-01T00:15:28;15.20;1.00
2993;DHT22;1506;48.932;9.478;2023-01-01T00:17:55;15.20;1.00
2993;DHT22;1506;48.932;9.478;2023-01-01T00:20:23;15.10;1.00
2993;DHT22;1506;48.932;9.478;2023-01-01T00:22:57;15.10;1.00
2993;DHT22;1506;48.932;9.478;2023-01-01T00:25:24;15.00;1.00
2993;DHT22;1506;48.932;9.478;2023-01-01T00:27:51;14.90;1.00
2993;DHT22;1506;48.932;9.478;2023-01-01T00:30:18;14.90;1.00
2993;DHT22;1506;48.932;9.478;2023-01-01T00:32:45;14.80;1.00
2993;DHT22;1506;48.932;9.478;2023-01-01T00:35:23;14.80;1.00
2993;DHT22;1506;48.932;9.478;2023-01-01T00:37:51;14.80;1.00
2993;DHT22;1506;48.932;9.478;2023-01-01T14:36:59;17.60;1.00
2993;DHT22;1506;48.932;9.478;2023-01-01T14:39:32;17.60;1.00
2993;DHT22;1506;48.932;9.478;2023-01-01T14:42:20;17.60;1.00
2993;DHT22;1506;48.932;9.478;2023-01-01T14:44:48;17.50;1.00
2993;DHT22;1506;48.932;9.478;2023-01-01T14:47:32;17.40;1.00
2993;DHT22;1506;48.932;9.478;2023-01-01T14:50:20;17.40;1.00
2993;DHT22;1506;48.932;9.478;2023-01-01T14:52:52;17.30;1.00
2993;DHT22;1506;48.932;9.478;2023-01-01T14:55:22;17.10;1.00
2993;DHT22;1506;48.932;9.478;2023-01-01T14:57:56;17.00;1.00
2993;DHT22;1506;48.932;9.478;2023-01-01T15:00:28;16.90;1.00
2993;DHT22;1506;48.932;9.478;2023-01-01T15:03:26;16.70;1.00
2993;DHT22;1506;48.932;9.478;2023-01-01T15:06:01;16.50;1.00
2993;DHT22;1506;48.932;9.478;2023-01-01T15:08:29;16.30;1.00
2993;DHT22;1506;48.932;9.478;2023-01-01T15:10:56;16.20;1.00
2993;DHT22;1506;48.932;9.478;2023-01-01T15:13:26;16.20;1.00
2993;DHT22;1506;48.932;9.478;2023-01-01T15:15:55;16.20;1.00
2993;DHT22;1506;48.932;9.478;2023-01-01T15:18:40;16.10;1.00
2993;DHT22;1506;48.932;9.478;2023-01-01T15:23:52;16.10;1.00
2993;DHT22;1506;48.932;9.478;2023-01-01T15:26:39;15.90;1.00
2993;DHT22;1506;48.932;9.478;2023-01-01T15:29:14;15.80;1.00
2993;DHT22;1506;48.932;9.478;2023-01-01T15:31:47;15.70;1.00
2993;DHT22;1506;48.932;9.478;2023-01-01T15:34:24;15.60;1.00
2993;DHT22;1506;48.932;9.478;2023-01-01T15:36:54;15.60;1.00
2993;DHT22;1506;48.932;9.478;2023-01-01T15:39:23;15.50;1.00
2993;DHT22;1506;48.932;9.478;2023-01-01T15:41:51;15.40;1.00
2993;DHT22;1506;48.932;9.478;2023-01-01T15:44:32;15.30;1.00
2993;DHT22;1506;48.932;9.478;2023-01-01T15:47:12;15.30;1.00
2993;DHT22;1506;48.932;9.478;2023-01-01T15:49:40;15.10;1.00
2993;DHT22;1506;48.932;9.478;2023-01-01T15:52:23;15.00;1.00
2993;DHT22;1506;48.932;9.478;2023-01-01T15:54:52;15.00;1.00
2993;DHT22;1506;48.932;9.478;2023-01-01T15:57:21;15.00;1.00
2993;DHT22;1506;48.932;9.478;2023-01-01T15:59:50;15.00;1.00
2993;DHT22;1506;48.932;9.478;2023-01-01T16:02:30;15.00;20.70
2993;DHT22;1506;48.932;9.478;2023-01-01T16:04:59;14.90;46.20
2993;DHT22;1506;48.932;9.478;2023-01-01T16:07:26;14.80;81.30
2993;DHT22;1506;48.932;9.478;2023-01-01T16:09:54;14.60;99.90
2993;DHT22;1506;48.932;9.478;2023-01-01T16:12:24;14.50;99.90
2993;DHT22;1506;48.932;9.478;2023-01-01T18:11:47;11.20;85.40
2993;DHT22;1506;48.932;9.478;2023-01-01T18:14:15;11.10;99.90
2993;DHT22;1506;48.932;9.478;2023-01-01T18:16:48;11.00;1.00
2993;DHT22;1506;48.932;9.478;2023-01-01T18:19:15;11.00;1.00
2993;DHT22;1506;48.932;9.478;2023-01-01T18:21:42;11.00;99.90
2993;DHT22;1506;48.932;9.478;2023-01-01T18:24:14;10.90;99.90
2993;DHT22;1506;48.932;9.478;2023-01-01T18:26:42;10.90;91.00
2993;DHT22;1506;48.932;9.478;2023-01-01T18:29:09;10.70;14.30
2993;DHT22;1506;48.932;9.478;2023-01-01T18:31:36;10.70;99.90
2993;DHT22;1506;48.932;9.478;2023-01-01T18:34:03;10.40;1.00
2993;DHT22;1506;48.932;9.478;2023-01-01T18:36:33;10.50;1.00
2993;DHT22;1506;48.932;9.478;2023-01-01T18:39:02;10.40;1.00
2993;DHT22;1506;48.932;9.478;2023-01-01T18:44:24;10.10;1.00
2993;DHT22;1506;48.932;9.478;2023-01-01T18:49:30;9.90;1.00
2993;DHT22;1506;48.932;9.478;2023-01-01T18:52:11;9.90;1.00
2993;DHT22;1506;48.932;9.478;2023-01-01T18:54:43;10.00;1.00
2993;DHT22;1506;48.932;9.478;2023-01-01T18:57:15;9.90;1.00
2993;DHT22;1506;48.932;9.478;2023-01-01T18:59:57;9.90;1.00
2993;DHT22;1506;48.932;9.478;2023-01-01T19:02:37;10.10;1.00
2993;DHT22;1506;48.932;9.478;2023-01-01T19:05:29;9.90;1.00
2993;DHT22;1506;48.932;9.478;2023-01-01T19:13:21;9.80;1.00
2993;DHT22;1506;48.932;9.478;2023-01-01T19:16:18;9.70;1.00
2993;DHT22;1506;48.932;9.478;2023-01-01T19:18:50;9.60;1.00
2993;DHT22;1506;48.932;9.478;2023-01-01T19:21:21;9.40;1.00
2993;DHT22;1506;48.932;9.478;2023-01-01T19:23:51;9.20;1.00
2993;DHT22;1506;48.932;9.478;2023-01-01T19:26:24;9.00;16.50
2993;DHT22;1506;48.932;9.478;2023-01-01T19:29:15;8.50;53.90
2993;DHT22;1506;48.932;9.478;2023-01-01T19:31:44;8.40;99.90
2993;DHT22;1506;48.932;9.478;2023-01-01T19:34:12;8.40;99.90
2993;DHT22;1506;48.932;9.478;2023-01-01T19:36:39;8.40;99.90
2993;DHT22;1506;48.932;9.478;2023-01-01T19:39:07;8.50;99.90
2993;DHT22;1506;48.932;9.478;2023-01-01T19:41:34;8.60;99.90
2993;DHT22;1506;48.932;9.478;2023-01-01T19:44:02;8.70;99.90
2993;DHT22;1506;48.932;9.478;2023-01-01T19:46:37;8.80;92.10
2993;DHT22;1506;48.932;9.478;2023-01-01T19:49:04;8.70;27.70
2993;DHT22;1506;48.932;9.478;2023-01-01T19:51:31;8.40;52.40
2993;DHT22;1506;48.932;9.478;2023-01-01T19:53:58;8.40;99.90
2993;DHT22;1506;48.932;9.478;2023-01-01T19:56:25;8.50;99.90
2993;DHT22;1506;48.932;9.478;2023-01-01T19:58:52;8.60;99.90
2993;DHT22;1506;48.932;9.478;2023-01-01T20:03:47;8.60;50.50
2993;DHT22;1506;48.932;9.478;2023-01-01T20:06:22;8.70;55.70
2993;DHT22;1506;48.932;9.478;2023-01-01T20:11:16;8.20;28.70
2993;DHT22;1506;48.932;9.478;2023-01-01T20:13:43;8.20;63.40
2993;DHT22;1506;48.932;9.478;2023-01-01T20:16:10;8.00;92.20
2993;DHT22;1506;48.932;9.478;2023-01-01T20:18:37;8.30;99.90
2993;DHT22;1506;48.932;9.478;2023-01-01T20:21:04;8.20;99.90
2993;DHT22;1506;48.932;9.478;2023-01-01T20:23:53;8.30;99.90
2993;DHT22;1506;48.932;9.478;2023-01-01T20:26:21;8.40;99.60
2993;DHT22;1506;48.932;9.478;2023-01-01T20:31:36;8.10;1.00
2993;DHT22;1506;48.932;9.478;2023-01-01T20:36:30;7.50;99.90
2993;DHT22;1506;48.932;9.478;2023-01-01T20:39:16;7.70;99.90
2993;DHT22;1506;48.932;9.478;2023-01-01T20:41:43;7.80;99.90
2993;DHT22;1506;48.932;9.478;2023-01-01T20:49:04;7.50;99.90
2993;DHT22;1506;48.932;9.478;2023-01-01T20:51:32;7.70;99.90
2993;DHT22;1506;48.932;9.478;2023-01-01T20:53:59;7.90;99.90
2993;DHT22;1506;48.932;9.478;2023-01-01T20:56:26;8.00;99.90
2993;DHT22;1506;48.932;9.478;2023-01-01T20:58:53;8.00;99.90
2993;DHT22;1506;48.932;9.478;2023-01-01T21:01:28;8.10;99.90
2993;DHT22;1506;48.932;9.478;2023-01-01T21:03:56;8.10;99.80
2993;DHT22;1506;48.932;9.478;2023-01-01T21:06:23;8.10;63.50
2993;DHT22;1506;48.932;9.478;2023-01-01T21:08:51;8.10;57.70
2993;DHT22;1506;48.932;9.478;2023-01-01T21:21:20;7.20;99.90
2993;DHT22;1506;48.932;9.478;2023-01-01T21:23:50;7.60;99.90
2993;DHT22;1506;48.932;9.478;2023-01-01T21:26:26;7.60;99.90
2993;DHT22;1506;48.932;9.478;2023-01-01T21:29:03;7.70;99.90
2993;DHT22;1506;48.932;9.478;2023-01-01T21:31:34;7.80;99.90
2993;DHT22;1506;48.932;9.478;2023-01-01T21:34:21;8.00;99.90
2993;DHT22;1506;48.932;9.478;2023-01-01T21:36:49;8.20;99.90
2993;DHT22;1506;48.932;9.478;2023-01-01T21:39:27;8.30;99.90
2993;DHT22;1506;48.932;9.478;2023-01-01T21:42:02;8.30;99.30
2993;DHT22;1506;48.932;9.478;2023-01-01T21:44:34;8.40;76.50
2993;DHT22;1506;48.932;9.478;2023-01-01T21:47:01;8.40;61.40
2993;DHT22;1506;48.932;9.478;2023-01-01T21:49:35;8.40;86.60
2993;DHT22;1506;48.932;9.478;2023-01-01T21:52:14;8.40;62.60
2993;DHT22;1506;48.932;9.478;2023-01-01T21:54:44;8.40;68.50
2993;DHT22;1506;48.932;9.478;2023-01-01T21:57:17;8.50;90.80
2993;DHT22;1506;48.932;9.478;2023-01-01T21:59:46;8.50;90.50
2993;DHT22;1506;48.932;9.478;2023-01-01T22:04:46;8.60;41.70
2993;DHT22;1506;48.932;9.478;2023-01-01T22:07:24;8.60;48.60
2993;DHT22;1506;48.932;9.478;2023-01-01T22:10:18;8.60;48.50
2993;DHT22;1506;48.932;9.478;2023-01-01T22:12:47;8.60;66.30
2993;DHT22;1506;48.932;9.478;2023-01-01T22:15:37;8.60;63.00
2993;DHT22;1506;48.932;9.478;2023-01-01T22:20:37;8.60;65.90
2993;DHT22;1506;48.932;9.478;2023-01-01T22:23:40;8.60;47.50
2993;DHT22;1506;48.932;9.478;2023-01-01T22:26:25;8.60;45.60
2993;DHT22;1506;48.932;9.478;2023-01-01T22:29:01;8.50;29.60
2993;DHT22;1506;48.932;9.478;2023-01-01T22:31:31;8.50;67.60
2993;DHT22;1506;48.932;9.478;2023-01-01T22:34:00;8.50;46.60
2993;DHT22;1506;48.932;9.478;2023-01-01T22:36:33;8.50;57.80
2993;DHT22;1506;48.932;9.478;2023-01-01T22:39:08;8.50;43.90
2993;DHT22;1506;48.932;9.478;2023-01-01T22:41:40;8.40;43.60
2993;DHT22;1506;48.932;9.478;2023-01-01T22:44:09;8.30;65.50
2993;DHT22;1506;48.932;9.478;2023-01-01T22:46:40;8.30;73.00
2993;DHT22;1506;48.932;9.478;2023-01-01T22:49:15;8.20;61.70
2993;DHT22;1506;48.932;9.478;2023-01-01T22:51:45;8.20;73.00
2993;DHT22;1506;48.932;9.478;2023-01-01T22:54:13;8.10;89.40
2993;DHT22;1506;48.932;9.478;2023-01-01T22:56:40;8.10;93.70
2993;DHT22;1506;48.932;9.478;2023-01-01T22:59:07;8.20;99.90
2993;DHT22;1506;48.932;9.478;2023-01-01T23:01:33;8.20;99.90
2993;DHT22;1506;48.932;9.478;2023-01-01T23:04:01;8.20;99.90
2993;DHT22;1506;48.932;9.478;2023-01-01T23:06:28;8.30;99.90
2993;DHT22;1506;48.932;9.478;2023-01-01T23:08:55;8.20;99.20
2993;DHT22;1506;48.932;9.478;2023-01-01T23:11:22;8.00;99.90
2993;DHT22;1506;48.932;9.478;2023-01-01T23:13:50;7.90;99.90
2993;DHT22;1506;48.932;9.478;2023-01-01T23:16:36;8.00;99.90
2993;DHT22;1506;48.932;9.478;2023-01-01T23:19:03;7.90;99.90
2993;DHT22;1506;48.932;9.478;2023-01-01T23:21:31;7.90;99.90
2993;DHT22;1506;48.932;9.478;2023-01-01T23:24:02;7.90;99.90
2993;DHT22;1506;48.932;9.478;2023-01-01T23:26:30;7.70;99.90
2993;DHT22;1506;48.932;9.478;2023-01-01T23:28:57;7.70;99.90
2993;DHT22;1506;48.932;9.478;2023-01-01T23:31:26;7.50;99.90
2993;DHT22;1506;48.932;9.478;2023-01-01T23:33:54;7.40;99.90
2993;DHT22;1506;48.932;9.478;2023-01-01T23:36:23;7.30;99.90
2993;DHT22;1506;48.932;9.478;2023-01-01T23:38:51;7.20;99.90
2993;DHT22;1506;48.932;9.478;2023-01-01T23:41:18;7.10;99.90
2993;DHT22;1506;48.932;9.478;2023-01-01T23:43:45;7.20;99.90
2993;DHT22;1506;48.932;9.478;2023-01-01T23:46:12;7.10;99.90
2993;DHT22;1506;48.932;9.478;2023-01-01T23:48:44;7.20;99.90
2993;DHT22;1506;48.932;9.478;2023-01-01T23:51:12;7.30;99.90
2993;DHT22;1506;48.932;9.478;2023-01-01T23:53:39;7.30;99.90
2993;DHT22;1506;48.932;9.478;2023-01-01T23:56:06;7.40;99.90
2993;DHT22;1506;48.932;9.478;2023-01-01T23:58:33;7.50;99.90
